Time;durP1;ratioP1;P1;durP2;ratioP2;P2;SDS_P1;SDS_P2;PMS_P1;PMS_P2;Temp;Humidity;BMP_temperature;BMP_pressure;BME280_temperature;BME280_humidity;BME280_pressure;Samples;Min_cycle;Max_cycle;Signal;HPM_P1;HPM_P2
2023/01/12 00:01:06;;;;;;;0.50;0.50;;;;;;;5.77;100.00;96962.31;5061898;28;20088;-60
2023/01/12 00:03:33;;;;;;;0.50;0.50;;;;;;;6.16;100.00;97042.22;5063742;28;20161;-55
2023/01/12 00:06:00;;;;;;;0.60;0.60;;;;;;;6.23;100.00;97041.66;5062038;28;20480;-56
2023/01/12 00:08:26;;;;;;;0.55;0.55;;;;;;;6.24;100.00;97054.28;5065702;28;20143;-55
2023/01/12 00:10:56;;;;;;;0.50;0.50;;;;;;;6.25;100.00;97050.38;5066885;28;20083;-57
2023/01/12 00:13:22;;;;;;;0.50;0.50;;;;;;;5.94;100.00;97009.66;5051723;28;20083;-56
2023/01/12 00:18:34;;;;;;;0.60;0.60;;;;;;;6.28;100.00;97059.88;5066654;28;20044;-60
2023/01/12 00:21:01;;;;;;;0.50;0.50;;;;;;;6.32;100.00;97056.13;5065761;28;20106;-60
2023/01/12 00:23:28;;;;;;;0.60;0.60;;;;;;;5.85;100.00;97002.63;5067251;28;20828;-59
2023/01/12 00:25:54;;;;;;;0.60;0.60;;;;;;;5.90;100.00;97027.16;5065207;28;20122;-60
2023/01/12 00:28:21;;;;;;;0.60;0.60;;;;;;;6.24;100.00;97065.28;5067525;28;20464;-55
2023/01/12 00:30:48;;;;;;;0.57;0.57;;;;;;;6.24;100.00;97065.28;5067302;28;20577;-59
2023/01/12 00:33:14;;;;;;;0.50;0.50;;;;;;;6.26;100.00;97053.94;5065981;28;20117;-56
2023/01/12 00:35:41;;;;;;;0.60;0.60;;;;;;;6.24;100.00;97065.28;5066993;28;20149;-55
2023/01/12 00:38:07;;;;;;;0.52;0.52;;;;;;;6.28;100.00;97060.69;5066548;28;20052;-56
2023/01/12 00:40:35;;;;;;;0.50;0.50;;;;;;;6.20;100.00;97064.34;5061100;28;20048;-59
2023/01/12 00:45:50;;;;;;;0.60;0.60;;;;;;;6.20;100.00;97069.84;5056195;28;20412;-56
2023/01/12 00:48:17;;;;;;;0.50;0.50;;;;;;;5.97;100.00;97038.41;5066509;28;20110;-56
2023/01/12 00:50:45;;;;;;;0.50;0.50;;;;;;;6.07;100.00;97065.44;5066962;28;20052;-59
2023/01/12 00:53:12;;;;;;;0.50;0.50;;;;;;;6.09;100.00;97068.66;5066582;28;20060;-59
2023/01/12 00:55:39;;;;;;;0.50;0.50;;;;;;;6.03;100.00;97064.53;5065988;28;20060;-55
2023/01/12 00:58:05;;;;;;;0.50;0.50;;;;;;;5.93;100.00;97059.47;5066443;28;20127;-56
2023/01/12 01:00:32;;;;;;;0.50;0.50;;;;;;;5.92;100.00;97052.38;5066908;28;20112;-59
2023/01/12 01:02:58;;;;;;;0.50;0.50;;;;;;;5.99;100.00;97069.13;5066100;28;20102;-56
2023/01/12 01:05:25;;;;;;;0.60;0.60;;;;;;;5.82;100.00;97069.28;5066483;28;20052;-55
2023/01/12 01:07:52;;;;;;;0.50;0.50;;;;;;;5.80;100.00;97075.09;5065852;28;20519;-59
2023/01/12 01:10:18;;;;;;;0.50;0.50;;;;;;;5.52;100.00;97032.06;5064253;28;20831;-55
2023/01/12 01:12:45;;;;;;;0.50;0.50;;;;;;;5.85;100.00;97071.34;5066084;28;20055;-59
2023/01/12 01:15:12;;;;;;;0.50;0.50;;;;;;;5.77;100.00;97083.22;5066311;28;20102;-58
2023/01/12 01:17:39;;;;;;;0.50;0.50;;;;;;;5.61;100.00;97063.81;5066459;28;20060;-59
2023/01/12 01:20:06;;;;;;;0.57;0.57;;;;;;;5.74;100.00;97078.38;5065810;28;20580;-59
2023/01/12 01:22:32;;;;;;;0.50;0.50;;;;;;;5.48;100.00;97036.63;5065897;28;20426;-59
2023/01/12 01:24:59;;;;;;;0.50;0.50;;;;;;;5.78;100.00;97076.59;5063516;28;20912;-55
2023/01/12 01:27:26;;;;;;;0.52;0.52;;;;;;;5.78;100.00;97079.34;5071495;28;20137;-59
2023/01/12 01:29:52;;;;;;;0.50;0.50;;;;;;;5.71;100.00;97079.06;5066124;28;20450;-59
2023/01/12 01:32:19;;;;;;;0.50;0.50;;;;;;;5.73;100.00;97077.59;5065695;28;20052;-59
2023/01/12 01:34:46;;;;;;;0.50;0.50;;;;;;;5.72;100.00;97080.69;5058502;28;20198;-59
2023/01/12 01:37:13;;;;;;;0.50;0.50;;;;;;;5.76;100.00;97073.38;5045517;28;20864;-56
2023/01/12 01:39:39;;;;;;;0.50;0.50;;;;;;;5.76;100.00;97071.44;5045980;28;20136;-58
2023/01/12 01:42:26;;;;;;;0.50;0.50;;;;;;;5.38;100.00;97020.56;5044049;28;20503;-56
2023/01/12 01:44:56;;;;;;;0.50;0.50;;;;;;;5.64;100.00;97084.31;5045960;28;20052;-60
2023/01/12 01:47:41;;;;;;;0.50;0.50;;;;;;;5.53;100.00;97055.66;5045598;28;20107;-59
2023/01/12 01:50:18;;;;;;;0.47;0.47;;;;;;;5.48;100.00;97053.13;5045256;28;20056;-55
2023/01/12 01:52:50;;;;;;;0.50;0.50;;;;;;;5.48;100.00;97061.34;5057336;28;20052;-56
2023/01/12 01:55:21;;;;;;;0.50;0.50;;;;;;;5.37;100.00;97068.41;5065908;28;20056;-59
2023/01/12 01:57:53;;;;;;;0.50;0.50;;;;;;;5.16;100.00;97045.63;5065216;28;20063;-55
2023/01/12 02:00:22;;;;;;;0.50;0.50;;;;;;;5.31;100.00;97064.25;5062439;28;20106;-59
2023/01/12 02:02:48;;;;;;;0.60;0.60;;;;;;;5.23;100.00;97051.41;5045362;28;20482;-57
2023/01/12 02:05:19;;;;;;;0.50;0.50;;;;;;;5.19;100.00;97061.44;5046413;28;20041;-60
2023/01/12 02:07:48;;;;;;;0.50;0.50;;;;;;;4.87;100.00;96993.56;5045549;28;20058;-58
2023/01/12 02:10:15;;;;;;;0.50;0.50;;;;;;;5.30;100.00;97065.38;5045459;28;20122;-59
2023/01/12 02:18:32;;;;;;;0.50;0.50;;;;;;;5.08;100.00;97006.13;5044463;28;20045;-56
2023/01/12 02:21:11;;;;;;;0.50;0.50;;;;;;;4.91;100.00;96999.97;5045279;28;20106;-55
2023/01/12 02:23:53;;;;;;;0.50;0.50;;;;;;;5.32;100.00;97060.38;5045287;28;20114;-59
2023/01/12 02:27:04;;;;;;;0.50;0.50;;;;;;;5.33;100.00;97056.47;5044467;28;20148;-59
2023/01/12 02:29:55;;;;;;;0.50;0.50;;;;;;;5.41;100.00;97059.16;5044615;28;20122;-56
2023/01/12 02:33:00;;;;;;;0.50;0.50;;;;;;;5.30;100.00;97065.38;5044327;28;20056;-56
2023/01/12 02:35:42;;;;;;;0.50;0.50;;;;;;;5.26;100.00;97056.22;5045015;28;20132;-55
2023/01/12 02:38:25;;;;;;;0.50;0.50;;;;;;;5.35;100.00;97059.69;5045338;28;20057;-55
2023/01/12 02:41:18;;;;;;;0.50;0.50;;;;;;;5.37;100.00;97051.94;5043406;28;20139;-59
2023/01/12 02:43:44;;;;;;;0.50;0.50;;;;;;;5.36;100.00;97066.81;5044633;28;20057;-60
2023/01/12 02:46:22;;;;;;;0.50;0.50;;;;;;;5.35;100.00;97060.50;5047886;28;20102;-56
2023/01/12 02:49:03;;;;;;;0.50;0.50;;;;;;;5.43;100.00;97061.56;5045678;28;20455;-57
2023/01/12 02:51:36;;;;;;;0.50;0.50;;;;;;;5.32;100.00;97060.38;5044507;28;20110;-57
2023/01/12 02:54:16;;;;;;;0.50;0.50;;;;;;;5.43;100.00;97053.31;5044609;28;20079;-59
2023/01/12 02:56:47;;;;;;;0.50;0.50;;;;;;;5.46;100.00;97058.13;5045547;28;20082;-57
2023/01/12 02:59:25;;;;;;;0.50;0.50;;;;;;;5.59;100.00;97054.31;5063381;28;20076;-59
2023/01/12 03:01:56;;;;;;;0.50;0.50;;;;;;;5.54;100.00;97052.56;5064609;28;20059;-55
2023/01/12 03:04:24;;;;;;;0.50;0.50;;;;;;;5.54;100.00;97062.75;5064162;28;20045;-57
2023/01/12 03:06:56;;;;;;;0.50;0.50;;;;;;;5.54;100.00;97063.56;5064871;28;20135;-56
2023/01/12 03:09:37;;;;;;;0.55;0.55;;;;;;;5.45;100.00;97078.50;5044331;28;20055;-56
2023/01/12 03:12:12;;;;;;;0.50;0.50;;;;;;;5.23;100.00;97029.44;5043852;28;20075;-59
2023/01/12 03:14:44;;;;;;;0.60;0.60;;;;;;;5.08;100.00;97005.31;5044139;28;20083;-58
2023/01/12 03:17:21;;;;;;;0.50;0.50;;;;;;;4.77;100.00;96958.28;5043921;28;20550;-57
2023/01/12 03:19:49;;;;;;;0.50;0.50;;;;;;;5.16;100.00;97020.91;5043811;28;20045;-60
2023/01/12 03:22:18;;;;;;;0.50;0.50;;;;;;;5.21;100.00;97020.72;5043700;28;20148;-61
2023/01/12 03:24:53;;;;;;;0.55;0.55;;;;;;;5.15;100.00;97000.13;5042228;28;20048;-59
2023/01/12 03:27:26;;;;;;;0.57;0.57;;;;;;;5.49;100.00;97043.72;5052329;28;20056;-61
2023/01/12 03:30:03;;;;;;;0.50;0.50;;;;;;;5.63;100.00;97060.72;5051706;28;20055;-55
2023/01/12 03:32:31;;;;;;;0.50;0.50;;;;;;;5.32;100.00;97010.94;5044489;28;20081;-59
2023/01/12 03:34:58;;;;;;;0.50;0.50;;;;;;;5.70;100.00;97067.28;5043865;28;20052;-56
2023/01/12 03:37:41;;;;;;;0.50;0.50;;;;;;;5.58;100.00;97069.19;5043817;28;20102;-55
2023/01/12 03:40:17;;;;;;;0.50;0.50;;;;;;;5.62;100.00;97076.41;5043866;28;20049;-55
2023/01/12 03:43:05;;;;;;;0.50;0.50;;;;;;;5.61;100.00;97060.28;5046304;28;20084;-60
2023/01/12 03:45:35;;;;;;;0.50;0.50;;;;;;;5.55;100.00;97064.34;5047880;28;20132;-59
2023/01/12 03:48:07;;;;;;;0.50;0.50;;;;;;;5.26;100.00;97034.25;5068099;28;20330;-55
2023/01/12 03:50:44;;;;;;;0.50;0.50;;;;;;;5.44;100.00;97068.66;5067025;28;20083;-60
2023/01/12 03:53:14;;;;;;;0.50;0.50;;;;;;;5.05;100.00;97003.25;5046737;28;20843;-56
2023/01/12 03:55:42;;;;;;;0.50;0.50;;;;;;;5.52;100.00;97062.28;5047693;28;20486;-59
2023/01/12 03:58:09;;;;;;;0.57;0.57;;;;;;;5.37;100.00;97024.47;5046508;28;20521;-60
2023/01/12 04:00:36;;;;;;;0.60;0.60;;;;;;;5.23;100.00;97032.97;5064409;28;20061;-56
2023/01/12 04:03:08;;;;;;;0.50;0.50;;;;;;;5.53;100.00;97083.13;5067430;28;20138;-59
2023/01/12 04:05:35;;;;;;;0.50;0.50;;;;;;;5.52;100.00;97071.31;5066109;28;20044;-61
2023/01/12 04:08:01;;;;;;;0.40;0.40;;;;;;;5.04;100.00;96993.44;5067278;28;20523;-60
2023/01/12 04:10:28;;;;;;;0.50;0.50;;;;;;;4.22;100.00;96885.31;5067596;28;20059;-59
2023/01/12 04:12:55;;;;;;;0.50;0.50;;;;;;;5.50;100.00;97086.56;5067473;28;20672;-59
2023/01/12 04:15:21;;;;;;;0.50;0.50;;;;;;;5.52;100.00;97081.50;5066614;28;20063;-55
2023/01/12 04:17:48;;;;;;;0.50;0.50;;;;;;;5.01;100.00;97016.84;5067691;28;20044;-59
2023/01/12 04:20:15;;;;;;;0.50;0.50;;;;;;;5.43;100.00;97095.34;5067419;28;20143;-56
2023/01/12 04:22:43;;;;;;;0.50;0.50;;;;;;;5.44;100.00;97096.13;5067784;28;20056;-55
2023/01/12 04:25:19;;;;;;;0.50;0.50;;;;;;;5.29;100.00;97055.53;5065588;28;21079;-59
2023/01/12 04:27:52;;;;;;;0.50;0.50;;;;;;;5.46;100.00;97094.66;5066988;28;20132;-55
2023/01/12 04:30:22;;;;;;;0.50;0.50;;;;;;;5.52;100.00;97098.81;5051489;28;20148;-61
2023/01/12 04:32:50;;;;;;;0.60;0.60;;;;;;;5.53;100.00;97105.09;5047155;28;20049;-59
2023/01/12 04:35:16;;;;;;;0.60;0.60;;;;;;;5.53;100.00;97094.13;5046456;28;20106;-55
2023/01/12 04:37:43;;;;;;;0.50;0.50;;;;;;;5.26;100.00;97057.03;5045377;28;20571;-60
2023/01/12 04:40:12;;;;;;;0.50;0.50;;;;;;;5.55;100.00;97108.31;5046703;28;20107;-59
2023/01/12 04:43:07;;;;;;;0.50;0.50;;;;;;;5.62;100.00;97119.56;5046862;28;20767;-60
2023/01/12 04:45:40;;;;;;;0.57;0.57;;;;;;;5.63;100.00;97119.22;5062232;28;20083;-56
2023/01/12 04:48:12;;;;;;;0.50;0.50;;;;;;;5.46;100.00;97094.66;5047183;28;20119;-59
2023/01/12 04:50:39;;;;;;;0.50;0.50;;;;;;;5.58;100.00;97113.16;5046691;28;20060;-61
2023/01/12 04:53:07;;;;;;;0.50;0.50;;;;;;;5.58;100.00;97115.91;5046403;28;20087;-60
2023/01/12 04:55:36;;;;;;;0.60;0.60;;;;;;;5.58;100.00;97096.66;5046305;28;20060;-60
2023/01/12 04:58:02;;;;;;;0.50;0.50;;;;;;;5.62;100.00;97180.81;5046627;28;20130;-61
2023/01/12 05:00:29;;;;;;;0.60;0.60;;;;;;;5.65;100.00;97180.16;5060157;28;20048;-60
2023/01/12 05:03:00;;;;;;;0.60;0.60;;;;;;;5.64;100.00;97112.59;5066606;28;20048;-60
2023/01/12 05:05:29;;;;;;;0.50;0.50;;;;;;;5.66;100.00;97118.56;5066581;28;20049;-60
2023/01/12 05:10:53;;;;;;;0.50;0.50;;;;;;;5.68;100.00;97134.69;5066355;28;20141;-60
2023/01/12 05:13:21;;;;;;;0.50;0.50;;;;;;;5.69;100.00;97136.34;5065836;28;20056;-55
2023/01/12 05:15:47;;;;;;;0.50;0.50;;;;;;;5.71;100.00;97139.53;5064471;28;20052;-61
2023/01/12 05:18:14;;;;;;;0.55;0.55;;;;;;;5.27;100.00;97057.81;5066298;28;20087;-56
2023/01/12 05:20:41;;;;;;;0.60;0.60;;;;;;;5.36;100.00;97132.72;5065841;28;20063;-55
2023/01/12 05:23:08;;;;;;;0.50;0.50;;;;;;;5.18;100.00;97147.69;5066347;28;20063;-61
2023/01/12 05:25:34;;;;;;;0.50;0.50;;;;;;;5.07;100.00;97091.56;5066253;28;20831;-60
2023/01/12 05:28:01;;;;;;;0.60;0.60;;;;;;;5.46;100.00;97140.53;5081190;28;20052;-55
2023/01/12 05:30:28;;;;;;;0.50;0.50;;;;;;;5.53;100.00;97149.06;5066379;28;20394;-61
2023/01/12 05:32:57;;;;;;;0.50;0.50;;;;;;;5.39;100.00;97137.53;5065888;28;20056;-57
2023/01/12 05:35:24;;;;;;;0.60;0.60;;;;;;;5.50;100.00;97147.00;5066440;28;20478;-56
2023/01/12 05:37:50;;;;;;;0.50;0.50;;;;;;;5.51;100.00;97146.66;5065529;28;20522;-56
2023/01/12 05:40:17;;;;;;;0.50;0.50;;;;;;;5.59;100.00;97147.72;5065605;28;20076;-61
2023/01/12 05:45:29;;;;;;;0.60;0.60;;;;;;;5.61;100.00;97139.94;5065643;28;20040;-61
2023/01/12 05:47:59;;;;;;;0.50;0.50;;;;;;;5.55;100.00;97141.28;5065453;28;20484;-56
2023/01/12 05:50:26;;;;;;;0.50;0.50;;;;;;;5.63;100.00;97143.16;5065736;28;20470;-58
2023/01/12 05:52:52;;;;;;;0.50;0.50;;;;;;;5.36;100.00;97105.25;5065147;28;20048;-61
2023/01/12 05:55:19;;;;;;;0.50;0.50;;;;;;;5.37;100.00;97112.34;5065405;28;20122;-60
2023/01/12 05:57:45;;;;;;;0.52;0.52;;;;;;;5.41;100.00;97103.09;5056668;28;20049;-55
2023/01/12 06:00:12;;;;;;;0.50;0.50;;;;;;;5.48;100.00;97121.78;5045689;28;20489;-61
2023/01/12 06:02:39;;;;;;;0.50;0.50;;;;;;;5.62;100.00;97141.53;5045238;28;20131;-61
2023/01/12 06:05:08;;;;;;;0.50;0.50;;;;;;;5.74;100.00;97144.34;5044754;28;20119;-56
2023/01/12 06:07:35;;;;;;;0.50;0.50;;;;;;;5.71;100.00;97156.00;5044069;28;20045;-60
2023/01/12 06:10:03;;;;;;;0.50;0.50;;;;;;;5.26;100.00;97078.19;5045547;28;20088;-56
2023/01/12 06:15:15;;;;;;;0.50;0.50;;;;;;;5.71;100.00;97151.31;5045661;28;20104;-60
2023/01/12 06:17:41;;;;;;;0.50;0.50;;;;;;;5.36;100.00;97099.75;5043168;28;20081;-56
2023/01/12 06:20:09;;;;;;;0.50;0.50;;;;;;;5.67;100.00;97146.84;5045180;28;20199;-58
2023/01/12 06:22:36;;;;;;;0.50;0.50;;;;;;;5.70;100.00;97148.91;5043502;28;20076;-61
2023/01/12 06:25:02;;;;;;;0.50;0.50;;;;;;;5.70;100.00;97144.25;5045374;28;20081;-62
2023/01/12 06:27:34;;;;;;;0.55;0.55;;;;;;;5.75;100.00;97151.47;5044570;28;20049;-56
2023/01/12 06:30:00;;;;;;;0.50;0.50;;;;;;;5.75;100.00;97151.47;5044884;28;20049;-59
2023/01/12 06:32:29;;;;;;;0.52;0.52;;;;;;;5.77;100.00;97154.69;5044971;28;20056;-61
2023/01/12 06:34:59;;;;;;;0.50;0.50;;;;;;;5.59;100.00;97121.06;5044909;28;20053;-57
2023/01/12 06:37:39;;;;;;;0.60;0.60;;;;;;;5.81;100.00;97166.59;5044569;28;20401;-59
2023/01/12 06:40:07;;;;;;;0.50;0.50;;;;;;;5.81;100.00;97172.09;5044867;28;20095;-61
2023/01/12 06:42:36;;;;;;;0.50;0.50;;;;;;;5.09;100.00;97045.38;5044680;28;20107;-61
2023/01/12 06:45:03;;;;;;;0.50;0.50;;;;;;;5.94;100.00;97165.56;5044429;28;20145;-57
2023/01/12 06:47:30;;;;;;;0.50;0.50;;;;;;;5.84;100.00;97165.97;5057055;28;20110;-62
2023/01/12 06:49:57;;;;;;;0.50;0.50;;;;;;;5.67;100.00;97146.84;5064453;28;20146;-58
2023/01/12 06:52:25;;;;;;;0.60;0.60;;;;;;;5.91;100.00;97160.72;5064433;28;20571;-59
2023/01/12 06:54:52;;;;;;;0.50;0.50;;;;;;;5.89;100.00;97168.50;5064546;28;20045;-57
2023/01/12 06:57:19;;;;;;;0.50;0.50;;;;;;;5.95;100.00;97161.66;5063790;28;20060;-61
2023/01/12 06:59:46;;;;;;;0.57;0.57;;;;;;;5.92;100.00;97170.56;5064390;28;20106;-58
2023/01/12 07:02:15;;;;;;;0.50;0.50;;;;;;;5.87;100.00;97151.53;5062926;28;20080;-60
2023/01/12 07:04:41;;;;;;;0.50;0.50;;;;;;;6.00;100.00;97175.19;5064031;28;20062;-56
2023/01/12 07:07:09;;;;;;;0.50;0.50;;;;;;;6.00;100.00;97183.44;5062542;28;20503;-59
2023/01/12 07:09:36;;;;;;;0.55;0.55;;;;;;;6.02;100.00;97179.19;5063784;28;20048;-59
2023/01/12 07:12:03;;;;;;;0.52;0.52;;;;;;;6.14;100.00;97200.47;5063459;28;20082;-60
2023/01/12 07:14:30;;;;;;;0.60;0.60;;;;;;;6.13;100.00;97174.09;5062323;28;20056;-55
2023/01/12 07:16:57;;;;;;;0.50;0.50;;;;;;;6.15;100.00;97189.13;5063875;28;20338;-59
2023/01/12 07:19:23;;;;;;;0.60;0.60;;;;;;;6.15;100.00;97177.31;5062289;28;20435;-55
2023/01/12 07:21:50;;;;;;;0.50;0.50;;;;;;;6.11;100.00;97176.38;5063845;28;20102;-56
2023/01/12 07:24:17;;;;;;;0.60;0.60;;;;;;;6.16;100.00;97184.44;5063686;28;20155;-59
2023/01/12 07:26:46;;;;;;;0.50;0.50;;;;;;;6.05;100.00;97161.25;5062039;28;20112;-57
2023/01/12 07:29:15;;;;;;;0.60;0.60;;;;;;;6.21;100.00;97180.66;5061526;28;20075;-59
2023/01/12 07:31:47;;;;;;;0.60;0.60;;;;;;;6.07;100.00;97164.44;5062326;28;20048;-60
2023/01/12 07:34:15;;;;;;;0.60;0.60;;;;;;;6.25;100.00;97187.88;5062250;28;20530;-61
2023/01/12 07:36:41;;;;;;;0.60;0.60;;;;;;;6.36;100.00;97189.06;5058109;28;20098;-57
2023/01/12 07:39:10;;;;;;;0.52;0.52;;;;;;;6.16;100.00;97151.44;5063362;28;20123;-61
2023/01/12 07:44:21;;;;;;;0.60;0.60;;;;;;;5.53;100.00;97177.31;5062952;28;20132;-59
2023/01/12 07:46:48;;;;;;;0.50;0.50;;;;;;;5.18;100.00;97154.00;5062096;28;20045;-58
2023/01/12 07:49:15;;;;;;;0.50;0.50;;;;;;;5.34;100.00;97198.94;5062854;28;20136;-56
2023/01/12 07:51:41;;;;;;;0.50;0.50;;;;;;;4.62;100.00;97092.16;5063245;28;20059;-61
2023/01/12 07:54:08;;;;;;;0.50;0.50;;;;;;;5.07;100.00;97185.72;5060000;28;20092;-61
2023/01/12 07:56:35;;;;;;;0.60;0.60;;;;;;;5.26;100.00;97204.50;5047960;28;20057;-60
2023/01/12 07:59:02;;;;;;;0.50;0.50;;;;;;;5.05;100.00;97132.28;5042964;28;20115;-66
2023/01/12 08:01:31;;;;;;;0.50;0.50;;;;;;;5.69;100.00;97213.28;5045960;28;20033;-70
2023/01/12 08:03:58;;;;;;;0.50;0.50;;;;;;;4.77;100.00;97049.66;5048347;28;20203;-61
2023/01/12 08:06:24;;;;;;;0.50;0.50;;;;;;;4.96;100.00;97101.34;5062923;28;20056;-64
2023/01/12 08:08:53;;;;;;;0.50;0.50;;;;;;;5.85;100.00;97215.09;5057999;28;20061;-60
2023/01/12 08:11:19;;;;;;;0.50;0.50;;;;;;;5.44;100.00;97145.56;5058191;28;20432;-69
2023/01/12 08:13:46;;;;;;;0.50;0.50;;;;;;;6.10;100.00;97218.78;5049844;28;20099;-61
2023/01/12 08:16:21;;;;;;;0.60;0.60;;;;;;;6.17;100.00;97227.28;5046290;28;20052;-57
2023/01/12 08:18:56;;;;;;;0.60;0.60;;;;;;;6.15;100.00;97227.63;5050635;28;20071;-59
2023/01/12 08:21:32;;;;;;;0.50;0.50;;;;;;;5.89;100.00;97207.00;5055815;28;20419;-58
2023/01/12 08:24:00;;;;;;;0.52;0.52;;;;;;;6.13;100.00;97212.59;5063018;28;20044;-57
2023/01/12 08:26:34;;;;;;;0.60;0.60;;;;;;;6.29;100.00;97226.53;5062463;28;20134;-58
2023/01/12 08:29:10;;;;;;;0.60;0.60;;;;;;;6.36;100.00;97226.78;5061202;28;20048;-59
2023/01/12 08:31:39;;;;;;;0.50;0.50;;;;;;;5.73;100.00;97138.06;5057589;28;20068;-62
2023/01/12 08:34:07;;;;;;;0.60;0.60;;;;;;;6.51;100.00;97228.91;5065705;28;20049;-59
2023/01/12 08:36:34;;;;;;;0.50;0.50;;;;;;;6.67;100.00;97229.88;5058451;28;20056;-61
2023/01/12 08:39:03;;;;;;;0.60;0.60;;;;;;;6.58;100.00;97216.19;5049559;28;20049;-59
2023/01/12 08:41:32;;;;;;;0.60;0.60;;;;;;;6.64;100.00;97201.06;5051720;28;20041;-58
2023/01/12 08:44:01;;;;;;;0.50;0.50;;;;;;;6.77;100.00;97224.72;5048518;28;20083;-62
2023/01/12 08:46:30;;;;;;;0.60;0.60;;;;;;;6.76;100.00;97220.38;5057233;28;20071;-62
2023/01/12 08:48:58;;;;;;;0.57;0.57;;;;;;;6.37;100.00;97160.41;5064457;28;20451;-62
2023/01/12 08:51:24;;;;;;;0.60;0.60;;;;;;;6.78;100.00;97195.25;5060425;28;20061;-58
2023/01/12 08:53:51;;;;;;;0.55;0.55;;;;;;;7.09;100.00;97220.28;5065253;28;20056;-61
2023/01/12 08:56:18;;;;;;;0.60;0.60;;;;;;;6.57;100.00;97134.78;5047301;28;20779;-61
2023/01/12 08:58:45;;;;;;;0.60;0.60;;;;;;;6.81;100.00;97217.38;5048009;28;20060;-62
2023/01/12 09:01:15;;;;;;;0.60;0.60;;;;;;;6.75;100.00;97202.22;5058244;28;20049;-58
2023/01/12 09:03:43;;;;;;;0.50;0.50;;;;;;;7.03;100.00;97211.47;5055967;28;20057;-59
2023/01/12 09:06:30;;;;;;;0.60;0.60;;;;;;;6.99;100.00;97202.25;5045767;28;20480;-58
2023/01/12 09:08:59;;;;;;;0.60;0.60;;;;;;;6.66;100.00;97165.75;5058564;28;20072;-62
2023/01/12 09:11:28;;;;;;;0.60;0.60;;;;;;;6.74;100.00;97167.59;5061792;28;20055;-60
2023/01/12 09:14:00;;;;;;;0.60;0.60;;;;;;;6.97;100.00;97184.47;5060716;28;20102;-61
2023/01/12 09:16:32;;;;;;;0.60;0.60;;;;;;;7.16;100.00;97215.81;5060316;28;20055;-62
2023/01/12 09:19:07;;;;;;;0.60;0.60;;;;;;;7.11;100.00;97210.50;5056491;28;20107;-65
2023/01/12 09:21:37;;;;;;;0.60;0.60;;;;;;;7.11;100.00;97210.50;5060374;28;20045;-59
2023/01/12 09:24:09;;;;;;;0.60;0.60;;;;;;;7.19;100.00;97215.09;5069720;28;20051;-61
2023/01/12 09:26:41;;;;;;;0.50;0.50;;;;;;;7.21;100.00;97262.41;5066287;28;20053;-58
2023/01/12 09:29:12;;;;;;;0.60;0.60;;;;;;;7.25;100.00;97205.50;5064639;28;20120;-58
2023/01/12 09:31:44;;;;;;;0.60;0.60;;;;;;;7.09;100.00;97212.84;5080149;28;20052;-61
2023/01/12 09:34:14;;;;;;;0.60;0.60;;;;;;;7.04;100.00;97215.81;5061682;28;20048;-59
2023/01/12 09:36:43;;;;;;;0.60;0.60;;;;;;;7.05;100.00;97211.91;5065468;28;20080;-59
2023/01/12 09:39:16;;;;;;;0.60;0.60;;;;;;;6.87;100.00;97160.16;5075331;28;20192;-59
2023/01/12 09:47:49;;;;;;;0.60;0.60;;;;;;;7.40;100.00;97195.69;5064300;28;20511;-60
2023/01/12 09:50:26;;;;;;;0.60;0.60;;;;;;;7.46;100.00;97200.63;5065041;28;20516;-59
2023/01/12 09:53:19;;;;;;;0.60;0.60;;;;;;;7.32;100.00;97189.16;5061696;28;20060;-59
2023/01/12 09:56:02;;;;;;;0.60;0.60;;;;;;;7.47;100.00;97191.25;5073429;28;20067;-59
2023/01/12 09:58:54;;;;;;;0.60;0.60;;;;;;;7.54;100.00;97196.94;5045310;28;20500;-59
2023/01/12 10:01:21;;;;;;;0.57;0.57;;;;;;;7.54;100.00;97165.81;5063648;28;20060;-65
2023/01/12 10:03:59;;;;;;;0.60;0.60;;;;;;;7.16;100.00;97091.06;5057560;28;20144;-61
2023/01/12 10:06:30;;;;;;;0.60;0.60;;;;;;;7.84;100.00;97185.66;5053314;28;20048;-63
2023/01/12 10:09:03;;;;;;;0.70;0.70;;;;;;;7.74;100.00;97179.44;5071123;28;20053;-60
2023/01/12 10:11:58;;;;;;;0.60;0.60;;;;;;;7.71;100.00;97177.38;5057030;28;20046;-62
2023/01/12 10:14:55;;;;;;;0.60;0.60;;;;;;;7.68;100.00;97175.31;5053940;28;20572;-61
2023/01/12 10:17:40;;;;;;;0.60;0.60;;;;;;;7.75;100.00;97194.03;5061872;28;20265;-62
2023/01/12 10:20:28;;;;;;;0.70;0.70;;;;;;;7.70;100.00;97177.72;5058438;28;20139;-59
2023/01/12 10:23:08;;;;;;;0.60;0.60;;;;;;;7.58;100.00;97164.00;5052225;28;20048;-59
2023/01/12 10:25:48;;;;;;;0.60;0.60;;;;;;;7.34;100.00;97145.56;5051751;28;20087;-66
2023/01/12 10:28:24;;;;;;;0.60;0.60;;;;;;;7.43;100.00;97159.19;5059038;28;20044;-65
2023/01/12 10:30:54;;;;;;;0.60;0.60;;;;;;;6.44;100.00;97003.84;5066618;28;20114;-61
2023/01/12 10:33:30;;;;;;;0.60;0.60;;;;;;;7.33;100.00;97182.50;5072289;28;20108;-59
2023/01/12 10:36:19;;;;;;;0.60;0.60;;;;;;;7.42;100.00;97161.16;5058415;28;20139;-66
2023/01/12 10:39:03;;;;;;;0.60;0.60;;;;;;;7.15;100.00;97150.84;5068700;28;20052;-66
2023/01/12 10:41:38;;;;;;;0.60;0.60;;;;;;;7.31;100.00;97159.22;5066691;28;20082;-66
2023/01/12 10:44:12;;;;;;;0.60;0.60;;;;;;;7.22;100.00;97129.03;5066308;28;20056;-64
2023/01/12 10:46:40;;;;;;;0.60;0.60;;;;;;;5.04;100.00;96795.81;5063629;28;20053;-63
2023/01/12 10:49:19;;;;;;;0.68;0.68;;;;;;;6.61;100.00;97028.38;5059054;28;20075;-65
2023/01/12 10:52:21;;;;;;;0.60;0.60;;;;;;;7.52;100.00;97137.81;5052903;28;20112;-66
2023/01/12 10:54:49;;;;;;;0.52;0.52;;;;;;;6.90;100.00;97032.81;5056505;28;20060;-62
2023/01/12 10:57:16;;;;;;;0.60;0.60;;;;;;;7.54;100.00;97150.09;5040096;28;20064;-67
2023/01/12 10:59:54;;;;;;;0.60;0.60;;;;;;;7.30;100.00;97108.81;5055861;28;20850;-61
2023/01/12 11:02:24;;;;;;;0.60;0.60;;;;;;;7.36;99.07;97101.94;5066149;28;20130;-61
2023/01/12 11:04:54;;;;;;;0.60;0.60;;;;;;;6.82;99.43;96993.25;5065504;28;20408;-61
2023/01/12 11:07:28;;;;;;;0.60;0.60;;;;;;;7.91;100.00;97136.19;5063399;28;20094;-61
2023/01/12 11:10:17;;;;;;;0.60;0.60;;;;;;;5.89;98.13;96780.94;5055113;28;20408;-61
2023/01/12 11:12:55;;;;;;;0.60;0.60;;;;;;;8.15;95.59;97130.56;5054639;28;20052;-62
2023/01/12 11:15:21;;;;;;;0.60;0.60;;;;;;;8.30;96.33;97113.28;5060314;28;20125;-60
2023/01/12 11:18:16;;;;;;;0.70;0.70;;;;;;;8.54;95.93;97124.97;5062334;28;20080;-60
2023/01/12 11:20:53;;;;;;;0.70;0.70;;;;;;;8.41;93.54;97125.41;5045868;28;20618;-62
2023/01/12 11:23:44;;;;;;;0.60;0.60;;;;;;;8.41;95.78;97103.34;5047002;28;20047;-59
2023/01/12 11:26:21;;;;;;;0.70;0.70;;;;;;;7.85;93.94;97005.25;5046793;28;20092;-64
2023/01/12 11:28:54;;;;;;;0.70;0.70;;;;;;;8.66;93.26;97126.88;5052939;28;20525;-60
2023/01/12 11:31:37;;;;;;;0.70;0.70;;;;;;;8.75;92.74;97119.19;5057463;28;20083;-58
2023/01/12 11:34:15;;;;;;;0.70;0.70;;;;;;;8.48;90.58;97098.00;5043509;28;20106;-60
2023/01/12 11:36:47;;;;;;;0.60;0.60;;;;;;;8.69;92.47;97128.91;5052301;28;20114;-59
2023/01/12 11:39:19;;;;;;;0.70;0.70;;;;;;;7.94;92.88;96989.31;5057955;28;20576;-63
2023/01/12 11:44:51;;;;;;;0.65;0.65;;;;;;;9.05;92.22;97128.63;5062745;28;20056;-62
2023/01/12 11:47:33;;;;;;;0.70;0.70;;;;;;;8.60;91.97;97086.88;5047531;28;20504;-60
2023/01/12 11:50:24;;;;;;;0.70;0.70;;;;;;;8.89;91.11;97125.06;5043436;28;20360;-62
2023/01/12 11:52:53;;;;;;;0.70;0.70;;;;;;;8.85;91.94;97136.03;5055743;28;20135;-60
2023/01/12 11:55:40;;;;;;;0.70;0.70;;;;;;;8.31;92.27;97043.94;5042877;28;20072;-62
2023/01/12 11:58:30;;;;;;;0.70;0.70;;;;;;;8.69;92.82;97115.09;5053304;28;20499;-66
2023/01/12 12:01:08;;;;;;;0.70;0.70;;;;;;;8.75;92.28;97113.66;5058120;28;20118;-61
2023/01/12 12:03:56;;;;;;;0.70;0.70;;;;;;;8.79;91.63;97106.25;5058409;28;20052;-57
2023/01/12 12:06:29;;;;;;;0.70;0.70;;;;;;;8.56;91.44;97110.81;5053944;28;20049;-64
2023/01/12 12:09:19;;;;;;;0.70;0.70;;;;;;;8.29;93.95;97111.66;5058880;28;20064;-65
2023/01/12 12:11:56;;;;;;;0.60;0.60;;;;;;;8.40;94.15;97110.00;5054801;28;20056;-62
2023/01/12 12:14:37;;;;;;;0.60;0.60;;;;;;;8.18;89.69;97103.09;5061839;28;20647;-58
2023/01/12 12:17:13;;;;;;;0.70;0.70;;;;;;;8.60;91.33;97117.25;5060097;28;20469;-59
2023/01/12 12:19:54;;;;;;;0.70;0.70;;;;;;;8.54;91.72;97108.41;5055314;28;20520;-66
2023/01/12 12:22:24;;;;;;;0.63;0.63;;;;;;;8.66;92.47;97111.06;5055504;28;20045;-59
2023/01/12 12:25:22;;;;;;;0.70;0.70;;;;;;;8.82;91.80;97102.81;5054995;28;20154;-57
2023/01/12 12:28:13;;;;;;;0.70;0.70;;;;;;;9.02;90.55;97101.72;5047746;28;20049;-57